sensor_id;sensor_type;location;lat;lon;timestamp;P1;durP1;ratioP1;P2;durP2;ratioP2
55647;SDS011;45266;48.756;9.246;2024-03-08T00:01:10;15.87;;;7.93;;
55647;SDS011;45266;48.756;9.246;2024-03-08T00:06:12;21.60;;;10.20;;
55647;SDS011;45266;48.756;9.246;2024-03-08T00:11:14;14.57;;;8.70;;
55647;SDS011;45266;48.756;9.246;2024-03-08T00:16:16;14.30;;;7.50;;
55647;SDS011;45266;48.756;9.246;2024-03-08T00:21:20;15.80;;;8.00;;
55647;SDS011;45266;48.756;9.246;2024-03-08T00:26:22;16.70;;;9.23;;
55647;SDS011;45266;48.756;9.246;2024-03-08T00:31:24;16.43;;;9.20;;
55647;SDS011;45266;48.756;9.246;2024-03-08T00:36:26;15.17;;;8.23;;
55647;SDS011;45266;48.756;9.246;2024-03-08T00:41:28;17.90;;;7.30;;
55647;SDS011;45266;48.756;9.246;2024-03-08T00:46:30;17.63;;;8.63;;
55647;SDS011;45266;48.756;9.246;2024-03-08T00:51:32;14.50;;;8.20;;
55647;SDS011;45266;48.756;9.246;2024-03-08T00:56:34;26.80;;;8.87;;
55647;SDS011;45266;48.756;9.246;2024-03-08T01:01:36;15.87;;;9.07;;
55647;SDS011;45266;48.756;9.246;2024-03-08T01:06:38;16.70;;;7.77;;
55647;SDS011;45266;48.756;9.246;2024-03-08T01:11:40;17.40;;;8.90;;
55647;SDS011;45266;48.756;9.246;2024-03-08T01:16:43;11.90;;;6.73;;
55647;SDS011;45266;48.756;9.246;2024-03-08T01:21:45;18.97;;;6.90;;
55647;SDS011;45266;48.756;9.246;2024-03-08T01:26:47;16.27;;;7.00;;
55647;SDS011;45266;48.756;9.246;2024-03-08T01:31:49;15.17;;;8.10;;
55647;SDS011;45266;48.756;9.246;2024-03-08T01:36:53;17.97;;;8.40;;
55647;SDS011;45266;48.756;9.246;2024-03-08T01:41:58;15.03;;;9.00;;
55647;SDS011;45266;48.756;9.246;2024-03-08T01:47:00;10.67;;;6.37;;
55647;SDS011;45266;48.756;9.246;2024-03-08T01:52:02;19.37;;;8.13;;
55647;SDS011;45266;48.756;9.246;2024-03-08T01:57:04;13.50;;;7.40;;
55647;SDS011;45266;48.756;9.246;2024-03-08T02:02:07;18.40;;;8.30;;
55647;SDS011;45266;48.756;9.246;2024-03-08T02:07:10;13.33;;;7.13;;
55647;SDS011;45266;48.756;9.246;2024-03-08T02:12:12;15.67;;;7.20;;
55647;SDS011;45266;48.756;9.246;2024-03-08T02:17:15;16.07;;;7.67;;
55647;SDS011;45266;48.756;9.246;2024-03-08T02:22:17;17.03;;;7.07;;
55647;SDS011;45266;48.756;9.246;2024-03-08T02:27:25;16.53;;;7.83;;
55647;SDS011;45266;48.756;9.246;2024-03-08T02:32:27;19.63;;;7.77;;
55647;SDS011;45266;48.756;9.246;2024-03-08T02:37:28;21.77;;;9.33;;
55647;SDS011;45266;48.756;9.246;2024-03-08T02:42:30;12.70;;;8.50;;
55647;SDS011;45266;48.756;9.246;2024-03-08T02:47:32;17.53;;;8.10;;
55647;SDS011;45266;48.756;9.246;2024-03-08T02:52:34;14.97;;;7.43;;
55647;SDS011;45266;48.756;9.246;2024-03-08T02:57:39;19.27;;;7.60;;
55647;SDS011;45266;48.756;9.246;2024-03-08T03:02:41;14.70;;;6.37;;
55647;SDS011;45266;48.756;9.246;2024-03-08T03:07:43;14.77;;;7.00;;
55647;SDS011;45266;48.756;9.246;2024-03-08T03:12:45;13.40;;;6.83;;
55647;SDS011;45266;48.756;9.246;2024-03-08T03:17:48;18.67;;;7.80;;
55647;SDS011;45266;48.756;9.246;2024-03-08T03:22:52;15.80;;;9.07;;
55647;SDS011;45266;48.756;9.246;2024-03-08T03:27:54;12.00;;;5.63;;
55647;SDS011;45266;48.756;9.246;2024-03-08T03:32:59;13.30;;;5.87;;
55647;SDS011;45266;48.756;9.246;2024-03-08T03:38:02;15.23;;;7.20;;
55647;SDS011;45266;48.756;9.246;2024-03-08T03:43:12;12.77;;;6.97;;
55647;SDS011;45266;48.756;9.246;2024-03-08T03:48:13;17.90;;;8.33;;
55647;SDS011;45266;48.756;9.246;2024-03-08T03:53:16;10.97;;;6.57;;
55647;SDS011;45266;48.756;9.246;2024-03-08T03:58:17;15.10;;;6.90;;
55647;SDS011;45266;48.756;9.246;2024-03-08T04:03:24;10.03;;;5.40;;
55647;SDS011;45266;48.756;9.246;2024-03-08T04:08:25;16.03;;;8.50;;
55647;SDS011;45266;48.756;9.246;2024-03-08T04:13:27;15.37;;;7.83;;
55647;SDS011;45266;48.756;9.246;2024-03-08T04:18:29;13.17;;;6.97;;
55647;SDS011;45266;48.756;9.246;2024-03-08T04:23:31;14.07;;;7.13;;
55647;SDS011;45266;48.756;9.246;2024-03-08T04:28:32;13.77;;;7.30;;
55647;SDS011;45266;48.756;9.246;2024-03-08T04:33:34;12.57;;;8.00;;
55647;SDS011;45266;48.756;9.246;2024-03-08T04:38:37;12.70;;;8.40;;
55647;SDS011;45266;48.756;9.246;2024-03-08T04:43:42;15.07;;;7.30;;
55647;SDS011;45266;48.756;9.246;2024-03-08T04:48:44;11.40;;;6.40;;
55647;SDS011;45266;48.756;9.246;2024-03-08T04:53:46;15.40;;;7.47;;
55647;SDS011;45266;48.756;9.246;2024-03-08T04:58:47;14.90;;;7.53;;
55647;SDS011;45266;48.756;9.246;2024-03-08T05:03:49;27.40;;;14.30;;
55647;SDS011;45266;48.756;9.246;2024-03-08T05:08:52;16.63;;;6.90;;
55647;SDS011;45266;48.756;9.246;2024-03-08T05:13:54;14.00;;;6.70;;
55647;SDS011;45266;48.756;9.246;2024-03-08T05:18:56;18.10;;;7.90;;
55647;SDS011;45266;48.756;9.246;2024-03-08T05:23:58;17.17;;;8.97;;
55647;SDS011;45266;48.756;9.246;2024-03-08T05:29:00;12.77;;;7.90;;
55647;SDS011;45266;48.756;9.246;2024-03-08T05:34:02;17.57;;;9.23;;
55647;SDS011;45266;48.756;9.246;2024-03-08T05:39:04;15.67;;;8.70;;
55647;SDS011;45266;48.756;9.246;2024-03-08T05:44:08;18.43;;;8.10;;
55647;SDS011;45266;48.756;9.246;2024-03-08T05:49:10;18.13;;;8.17;;
55647;SDS011;45266;48.756;9.246;2024-03-08T05:54:13;15.07;;;6.63;;
55647;SDS011;45266;48.756;9.246;2024-03-08T05:59:19;20.60;;;8.07;;
55647;SDS011;45266;48.756;9.246;2024-03-08T06:04:21;15.43;;;8.17;;
55647;SDS011;45266;48.756;9.246;2024-03-08T06:09:24;11.87;;;7.80;;
55647;SDS011;45266;48.756;9.246;2024-03-08T06:14:26;16.90;;;8.33;;
55647;SDS011;45266;48.756;9.246;2024-03-08T06:19:28;21.40;;;7.50;;
55647;SDS011;45266;48.756;9.246;2024-03-08T06:24:33;18.43;;;7.73;;
55647;SDS011;45266;48.756;9.246;2024-03-08T06:29:39;17.67;;;8.70;;
55647;SDS011;45266;48.756;9.246;2024-03-08T06:34:41;18.63;;;8.30;;
55647;SDS011;45266;48.756;9.246;2024-03-08T06:39:43;20.20;;;9.73;;
55647;SDS011;45266;48.756;9.246;2024-03-08T06:44:46;18.53;;;8.87;;
55647;SDS011;45266;48.756;9.246;2024-03-08T06:49:51;18.97;;;8.77;;
55647;SDS011;45266;48.756;9.246;2024-03-08T06:54:53;21.00;;;9.37;;
55647;SDS011;45266;48.756;9.246;2024-03-08T06:59:55;28.87;;;12.47;;
55647;SDS011;45266;48.756;9.246;2024-03-08T07:04:58;26.63;;;8.80;;
55647;SDS011;45266;48.756;9.246;2024-03-08T07:10:00;31.03;;;11.50;;
55647;SDS011;45266;48.756;9.246;2024-03-08T07:15:02;20.20;;;9.03;;
55647;SDS011;45266;48.756;9.246;2024-03-08T07:20:06;26.17;;;9.87;;
55647;SDS011;45266;48.756;9.246;2024-03-08T07:25:13;21.80;;;10.57;;
55647;SDS011;45266;48.756;9.246;2024-03-08T07:30:30;31.57;;;12.77;;
55647;SDS011;45266;48.756;9.246;2024-03-08T07:35:45;28.53;;;13.77;;
55647;SDS011;45266;48.756;9.246;2024-03-08T07:40:52;18.13;;;9.00;;
55647;SDS011;45266;48.756;9.246;2024-03-08T07:45:57;28.37;;;11.47;;
55647;SDS011;45266;48.756;9.246;2024-03-08T07:50:59;23.80;;;10.17;;
55647;SDS011;45266;48.756;9.246;2024-03-08T07:56:01;20.60;;;11.63;;
55647;SDS011;45266;48.756;9.246;2024-03-08T08:01:04;22.20;;;10.03;;
55647;SDS011;45266;48.756;9.246;2024-03-08T08:06:06;25.50;;;10.63;;
55647;SDS011;45266;48.756;9.246;2024-03-08T08:11:09;16.60;;;8.97;;
55647;SDS011;45266;48.756;9.246;2024-03-08T08:16:13;22.10;;;9.63;;
55647;SDS011;45266;48.756;9.246;2024-03-08T08:21:15;18.70;;;10.63;;
55647;SDS011;45266;48.756;9.246;2024-03-08T08:26:17;23.90;;;10.07;;
55647;SDS011;45266;48.756;9.246;2024-03-08T08:31:25;21.30;;;10.03;;
55647;SDS011;45266;48.756;9.246;2024-03-08T08:36:38;20.33;;;10.10;;
55647;SDS011;45266;48.756;9.246;2024-03-08T08:41:40;20.70;;;9.50;;
55647;SDS011;45266;48.756;9.246;2024-03-08T08:46:44;26.83;;;12.00;;
55647;SDS011;45266;48.756;9.246;2024-03-08T08:51:49;19.87;;;9.37;;
55647;SDS011;45266;48.756;9.246;2024-03-08T08:56:54;17.90;;;8.17;;
55647;SDS011;45266;48.756;9.246;2024-03-08T09:01:56;18.87;;;10.13;;
55647;SDS011;45266;48.756;9.246;2024-03-08T09:06:58;28.10;;;11.60;;
55647;SDS011;45266;48.756;9.246;2024-03-08T09:12:00;19.77;;;11.00;;
55647;SDS011;45266;48.756;9.246;2024-03-08T09:17:02;17.00;;;8.53;;
55647;SDS011;45266;48.756;9.246;2024-03-08T09:22:04;22.77;;;11.67;;
55647;SDS011;45266;48.756;9.246;2024-03-08T09:27:07;19.30;;;9.37;;
55647;SDS011;45266;48.756;9.246;2024-03-08T09:32:11;21.20;;;9.20;;
55647;SDS011;45266;48.756;9.246;2024-03-08T09:37:13;23.70;;;10.50;;
55647;SDS011;45266;48.756;9.246;2024-03-08T09:42:15;18.63;;;8.67;;
55647;SDS011;45266;48.756;9.246;2024-03-08T09:47:18;16.83;;;8.90;;
55647;SDS011;45266;48.756;9.246;2024-03-08T09:52:24;15.27;;;8.40;;
55647;SDS011;45266;48.756;9.246;2024-03-08T09:57:27;16.30;;;9.10;;
55647;SDS011;45266;48.756;9.246;2024-03-08T10:02:30;17.80;;;9.33;;
55647;SDS011;45266;48.756;9.246;2024-03-08T10:07:33;18.53;;;9.20;;
55647;SDS011;45266;48.756;9.246;2024-03-08T10:12:36;18.27;;;8.50;;
55647;SDS011;45266;48.756;9.246;2024-03-08T10:17:38;18.77;;;10.33;;
55647;SDS011;45266;48.756;9.246;2024-03-08T10:22:41;15.23;;;9.40;;
55647;SDS011;45266;48.756;9.246;2024-03-08T10:28:03;16.87;;;9.30;;
55647;SDS011;45266;48.756;9.246;2024-03-08T10:33:06;14.60;;;7.20;;
55647;SDS011;45266;48.756;9.246;2024-03-08T10:38:09;18.23;;;8.10;;
55647;SDS011;45266;48.756;9.246;2024-03-08T10:43:22;14.97;;;7.50;;
55647;SDS011;45266;48.756;9.246;2024-03-08T10:48:30;16.47;;;7.43;;
55647;SDS011;45266;48.756;9.246;2024-03-08T10:53:39;20.00;;;9.17;;
55647;SDS011;45266;48.756;9.246;2024-03-08T10:58:43;18.00;;;8.70;;
55647;SDS011;45266;48.756;9.246;2024-03-08T11:03:46;18.23;;;9.70;;
55647;SDS011;45266;48.756;9.246;2024-03-08T11:08:52;22.87;;;10.00;;
55647;SDS011;45266;48.756;9.246;2024-03-08T11:13:57;14.90;;;9.30;;
55647;SDS011;45266;48.756;9.246;2024-03-08T11:19:00;17.97;;;9.40;;
55647;SDS011;45266;48.756;9.246;2024-03-08T11:24:07;16.13;;;7.60;;
55647;SDS011;45266;48.756;9.246;2024-03-08T11:34:48;17.93;;;8.87;;
55647;SDS011;45266;48.756;9.246;2024-03-08T11:39:53;17.47;;;8.33;;
55647;SDS011;45266;48.756;9.246;2024-03-08T11:45:07;17.83;;;9.10;;
55647;SDS011;45266;48.756;9.246;2024-03-08T11:50:16;16.47;;;8.90;;
55647;SDS011;45266;48.756;9.246;2024-03-08T11:55:20;18.30;;;8.93;;
55647;SDS011;45266;48.756;9.246;2024-03-08T12:00:23;18.13;;;10.20;;
55647;SDS011;45266;48.756;9.246;2024-03-08T12:05:28;15.73;;;8.57;;
55647;SDS011;45266;48.756;9.246;2024-03-08T12:10:32;19.13;;;9.40;;
55647;SDS011;45266;48.756;9.246;2024-03-08T12:15:37;15.97;;;8.50;;
55647;SDS011;45266;48.756;9.246;2024-03-08T12:20:40;21.50;;;11.73;;
55647;SDS011;45266;48.756;9.246;2024-03-08T12:25:45;23.50;;;10.60;;
55647;SDS011;45266;48.756;9.246;2024-03-08T12:30:49;20.90;;;9.80;;
55647;SDS011;45266;48.756;9.246;2024-03-08T12:35:57;23.27;;;10.37;;
55647;SDS011;45266;48.756;9.246;2024-03-08T12:41:00;14.70;;;9.27;;
55647;SDS011;45266;48.756;9.246;2024-03-08T12:46:06;17.53;;;9.23;;
55647;SDS011;45266;48.756;9.246;2024-03-08T12:51:10;15.43;;;8.87;;
55647;SDS011;45266;48.756;9.246;2024-03-08T12:56:19;19.30;;;11.30;;
55647;SDS011;45266;48.756;9.246;2024-03-08T13:01:30;16.80;;;9.40;;
55647;SDS011;45266;48.756;9.246;2024-03-08T13:06:36;19.27;;;9.53;;
55647;SDS011;45266;48.756;9.246;2024-03-08T13:11:37;22.70;;;9.50;;
55647;SDS011;45266;48.756;9.246;2024-03-08T13:16:40;16.73;;;9.63;;
55647;SDS011;45266;48.756;9.246;2024-03-08T13:21:42;22.33;;;10.73;;
55647;SDS011;45266;48.756;9.246;2024-03-08T13:26:44;18.43;;;8.90;;
55647;SDS011;45266;48.756;9.246;2024-03-08T13:31:46;20.20;;;9.17;;
55647;SDS011;45266;48.756;9.246;2024-03-08T13:36:53;21.07;;;11.17;;
55647;SDS011;45266;48.756;9.246;2024-03-08T13:42:01;19.63;;;9.43;;
55647;SDS011;45266;48.756;9.246;2024-03-08T13:47:03;21.97;;;10.00;;
55647;SDS011;45266;48.756;9.246;2024-03-08T13:52:06;24.40;;;10.30;;
55647;SDS011;45266;48.756;9.246;2024-03-08T13:57:09;21.70;;;9.20;;
55647;SDS011;45266;48.756;9.246;2024-03-08T14:02:12;15.23;;;8.80;;
55647;SDS011;45266;48.756;9.246;2024-03-08T14:07:15;19.07;;;10.77;;
55647;SDS011;45266;48.756;9.246;2024-03-08T14:12:18;21.47;;;9.37;;
55647;SDS011;45266;48.756;9.246;2024-03-08T14:17:23;20.37;;;8.87;;
55647;SDS011;45266;48.756;9.246;2024-03-08T14:22:26;18.00;;;9.90;;
55647;SDS011;45266;48.756;9.246;2024-03-08T14:27:28;20.40;;;10.80;;
55647;SDS011;45266;48.756;9.246;2024-03-08T14:32:30;16.20;;;8.67;;
55647;SDS011;45266;48.756;9.246;2024-03-08T14:37:32;17.30;;;9.37;;
55647;SDS011;45266;48.756;9.246;2024-03-08T14:42:34;18.77;;;9.87;;
55647;SDS011;45266;48.756;9.246;2024-03-08T14:47:35;18.37;;;9.87;;
55647;SDS011;45266;48.756;9.246;2024-03-08T14:52:44;17.47;;;9.43;;
55647;SDS011;45266;48.756;9.246;2024-03-08T14:57:50;17.97;;;9.30;;
55647;SDS011;45266;48.756;9.246;2024-03-08T15:02:53;17.60;;;9.93;;
55647;SDS011;45266;48.756;9.246;2024-03-08T15:07:55;20.90;;;9.70;;
55647;SDS011;45266;48.756;9.246;2024-03-08T15:12:57;17.23;;;9.20;;
55647;SDS011;45266;48.756;9.246;2024-03-08T15:18:00;20.93;;;9.93;;
55647;SDS011;45266;48.756;9.246;2024-03-08T15:23:05;19.20;;;10.50;;
55647;SDS011;45266;48.756;9.246;2024-03-08T15:28:08;18.17;;;9.37;;
55647;SDS011;45266;48.756;9.246;2024-03-08T15:33:16;21.50;;;9.63;;
55647;SDS011;45266;48.756;9.246;2024-03-08T15:38:25;19.80;;;10.60;;
55647;SDS011;45266;48.756;9.246;2024-03-08T15:43:32;21.40;;;10.30;;
55647;SDS011;45266;48.756;9.246;2024-03-08T15:48:38;21.10;;;10.50;;
55647;SDS011;45266;48.756;9.246;2024-03-08T15:53:41;22.87;;;10.80;;
55647;SDS011;45266;48.756;9.246;2024-03-08T15:58:45;23.67;;;13.37;;
55647;SDS011;45266;48.756;9.246;2024-03-08T16:03:47;22.40;;;9.47;;
55647;SDS011;45266;48.756;9.246;2024-03-08T16:08:51;18.00;;;9.43;;
55647;SDS011;45266;48.756;9.246;2024-03-08T16:13:54;15.90;;;9.20;;
55647;SDS011;45266;48.756;9.246;2024-03-08T16:18:56;21.83;;;10.37;;
55647;SDS011;45266;48.756;9.246;2024-03-08T16:23:59;12.97;;;8.00;;
55647;SDS011;45266;48.756;9.246;2024-03-08T16:29:05;16.40;;;8.70;;
55647;SDS011;45266;48.756;9.246;2024-03-08T16:34:07;16.67;;;8.40;;
55647;SDS011;45266;48.756;9.246;2024-03-08T16:39:10;17.67;;;9.13;;
55647;SDS011;45266;48.756;9.246;2024-03-08T16:44:12;16.13;;;8.60;;
55647;SDS011;45266;48.756;9.246;2024-03-08T16:49:15;16.00;;;8.17;;
55647;SDS011;45266;48.756;9.246;2024-03-08T16:54:17;18.17;;;8.57;;
55647;SDS011;45266;48.756;9.246;2024-03-08T16:59:19;13.97;;;7.20;;
55647;SDS011;45266;48.756;9.246;2024-03-08T17:04:22;17.00;;;8.67;;
55647;SDS011;45266;48.756;9.246;2024-03-08T17:09:24;16.10;;;8.83;;
55647;SDS011;45266;48.756;9.246;2024-03-08T17:14:26;19.97;;;8.83;;
55647;SDS011;45266;48.756;9.246;2024-03-08T17:19:30;18.53;;;9.50;;
55647;SDS011;45266;48.756;9.246;2024-03-08T17:24:32;14.67;;;8.70;;
55647;SDS011;45266;48.756;9.246;2024-03-08T17:29:33;15.43;;;8.07;;
55647;SDS011;45266;48.756;9.246;2024-03-08T17:34:37;19.03;;;8.33;;
55647;SDS011;45266;48.756;9.246;2024-03-08T17:39:41;14.57;;;7.53;;
55647;SDS011;45266;48.756;9.246;2024-03-08T17:44:43;14.10;;;7.78;;
55647;SDS011;45266;48.756;9.246;2024-03-08T17:49:46;12.43;;;7.23;;
55647;SDS011;45266;48.756;9.246;2024-03-08T17:54:48;13.90;;;7.53;;
55647;SDS011;45266;48.756;9.246;2024-03-08T17:59:53;21.23;;;9.40;;
55647;SDS011;45266;48.756;9.246;2024-03-08T18:04:55;13.27;;;7.97;;
55647;SDS011;45266;48.756;9.246;2024-03-08T18:09:58;14.13;;;7.83;;
55647;SDS011;45266;48.756;9.246;2024-03-08T18:15:00;11.53;;;6.33;;
55647;SDS011;45266;48.756;9.246;2024-03-08T18:20:02;14.20;;;8.00;;
55647;SDS011;45266;48.756;9.246;2024-03-08T18:25:06;16.40;;;8.17;;
55647;SDS011;45266;48.756;9.246;2024-03-08T18:30:13;17.20;;;7.30;;
55647;SDS011;45266;48.756;9.246;2024-03-08T18:35:18;13.47;;;7.50;;
55647;SDS011;45266;48.756;9.246;2024-03-08T18:40:21;16.77;;;8.53;;
55647;SDS011;45266;48.756;9.246;2024-03-08T18:45:26;16.50;;;7.83;;
55647;SDS011;45266;48.756;9.246;2024-03-08T18:50:29;15.67;;;7.73;;
55647;SDS011;45266;48.756;9.246;2024-03-08T18:55:31;15.90;;;9.80;;
55647;SDS011;45266;48.756;9.246;2024-03-08T19:00:34;15.27;;;7.80;;
55647;SDS011;45266;48.756;9.246;2024-03-08T19:05:39;12.87;;;7.20;;
55647;SDS011;45266;48.756;9.246;2024-03-08T19:10:44;15.17;;;7.30;;
55647;SDS011;45266;48.756;9.246;2024-03-08T19:15:46;12.23;;;7.03;;
55647;SDS011;45266;48.756;9.246;2024-03-08T19:20:52;13.10;;;6.53;;
55647;SDS011;45266;48.756;9.246;2024-03-08T19:25:54;16.37;;;7.60;;
55647;SDS011;45266;48.756;9.246;2024-03-08T19:30:56;13.57;;;6.87;;
55647;SDS011;45266;48.756;9.246;2024-03-08T19:35:59;10.57;;;6.87;;
55647;SDS011;45266;48.756;9.246;2024-03-08T19:41:01;12.77;;;7.37;;
55647;SDS011;45266;48.756;9.246;2024-03-08T19:46:04;16.43;;;6.50;;
55647;SDS011;45266;48.756;9.246;2024-03-08T19:51:11;14.43;;;6.37;;
55647;SDS011;45266;48.756;9.246;2024-03-08T19:56:15;14.20;;;7.50;;
55647;SDS011;45266;48.756;9.246;2024-03-08T20:01:17;13.10;;;5.43;;
55647;SDS011;45266;48.756;9.246;2024-03-08T20:06:20;12.43;;;6.33;;
55647;SDS011;45266;48.756;9.246;2024-03-08T20:11:23;9.30;;;5.93;;
55647;SDS011;45266;48.756;9.246;2024-03-08T20:16:25;11.80;;;6.40;;
55647;SDS011;45266;48.756;9.246;2024-03-08T20:21:28;18.83;;;10.43;;
55647;SDS011;45266;48.756;9.246;2024-03-08T20:26:30;15.23;;;8.50;;
55647;SDS011;45266;48.756;9.246;2024-03-08T20:31:31;11.77;;;6.40;;
55647;SDS011;45266;48.756;9.246;2024-03-08T20:36:33;13.33;;;6.70;;
55647;SDS011;45266;48.756;9.246;2024-03-08T20:41:36;11.70;;;6.37;;
55647;SDS011;45266;48.756;9.246;2024-03-08T20:46:39;12.07;;;5.73;;
55647;SDS011;45266;48.756;9.246;2024-03-08T20:51:41;13.53;;;7.67;;
55647;SDS011;45266;48.756;9.246;2024-03-08T20:56:43;10.70;;;6.03;;
55647;SDS011;45266;48.756;9.246;2024-03-08T21:01:45;14.03;;;8.00;;
55647;SDS011;45266;48.756;9.246;2024-03-08T21:06:47;18.73;;;7.70;;
55647;SDS011;45266;48.756;9.246;2024-03-08T21:11:49;18.83;;;7.70;;
55647;SDS011;45266;48.756;9.246;2024-03-08T21:16:51;14.80;;;8.33;;
55647;SDS011;45266;48.756;9.246;2024-03-08T21:21:53;10.43;;;6.10;;
55647;SDS011;45266;48.756;9.246;2024-03-08T21:26:55;13.00;;;7.60;;
55647;SDS011;45266;48.756;9.246;2024-03-08T21:32:00;11.57;;;6.67;;
55647;SDS011;45266;48.756;9.246;2024-03-08T21:37:03;21.83;;;8.67;;
55647;SDS011;45266;48.756;9.246;2024-03-08T21:42:08;13.17;;;7.07;;
55647;SDS011;45266;48.756;9.246;2024-03-08T21:47:09;12.00;;;7.27;;
55647;SDS011;45266;48.756;9.246;2024-03-08T21:52:11;14.70;;;6.90;;
55647;SDS011;45266;48.756;9.246;2024-03-08T21:57:16;13.33;;;7.23;;
55647;SDS011;45266;48.756;9.246;2024-03-08T22:02:21;11.83;;;6.70;;
55647;SDS011;45266;48.756;9.246;2024-03-08T22:07:23;11.70;;;6.77;;
55647;SDS011;45266;48.756;9.246;2024-03-08T22:12:25;17.93;;;6.70;;
55647;SDS011;45266;48.756;9.246;2024-03-08T22:17:31;10.30;;;6.13;;
55647;SDS011;45266;48.756;9.246;2024-03-08T22:22:33;11.20;;;6.00;;
55647;SDS011;45266;48.756;9.246;2024-03-08T22:27:37;11.47;;;6.37;;
55647;SDS011;45266;48.756;9.246;2024-03-08T22:32:42;16.93;;;6.20;;
55647;SDS011;45266;48.756;9.246;2024-03-08T22:37:43;11.40;;;5.77;;
55647;SDS011;45266;48.756;9.246;2024-03-08T22:42:46;13.53;;;5.97;;
55647;SDS011;45266;48.756;9.246;2024-03-08T22:47:48;8.83;;;5.43;;
55647;SDS011;45266;48.756;9.246;2024-03-08T22:52:51;9.97;;;5.90;;
55647;SDS011;45266;48.756;9.246;2024-03-08T22:57:53;13.70;;;7.40;;
55647;SDS011;45266;48.756;9.246;2024-03-08T23:02:55;13.50;;;5.70;;
55647;SDS011;45266;48.756;9.246;2024-03-08T23:07:58;16.90;;;6.80;;
55647;SDS011;45266;48.756;9.246;2024-03-08T23:13:02;12.13;;;5.57;;
55647;SDS011;45266;48.756;9.246;2024-03-08T23:18:05;15.37;;;5.47;;
55647;SDS011;45266;48.756;9.246;2024-03-08T23:23:11;11.57;;;6.37;;
55647;SDS011;45266;48.756;9.246;2024-03-08T23:28:14;7.93;;;5.37;;
55647;SDS011;45266;48.756;9.246;2024-03-08T23:33:17;10.17;;;4.30;;
55647;SDS011;45266;48.756;9.246;2024-03-08T23:38:19;10.10;;;5.90;;
55647;SDS011;45266;48.756;9.246;2024-03-08T23:43:21;14.80;;;5.50;;
55647;SDS011;45266;48.756;9.246;2024-03-08T23:48:23;14.20;;;5.00;;
55647;SDS011;45266;48.756;9.246;2024-03-08T23:53:27;12.67;;;5.37;;
55647;SDS011;45266;48.756;9.246;2024-03-08T23:58:29;11.90;;;5.93;;
